Terminal Aerodrome Forecast
Issued by NWS Amarillo, TX

Home | Current Version | Previous Version | Text Only | Print | Product List | Glossary On
Versions: 1 2 3 4 5 6 7 8 9 10 11 12 13 14 15 16 17
653
FTUS44 KAMA 290523
TAFDHT
TAF
KDHT 290523Z 2906/3006 02022KT 4SM BR OVC003
      TEMPO 2906/2910 2SM -SHRA OVC003
     FM291000 01028G38KT 3SM -SHRA BR OVC004
     FM291600 01025G35KT P6SM SCT005 BKN040
      TEMPO 2916/2920 4SM -SHRA BR BKN006=

USA.gov is the U.S. government's official web portal to all federal, state and local government web resources and services.